sensor_id;sensor_type;location;lat;lon;timestamp;temperature;humidity
15107;DHT22;7654;45.308;-75.096;2023-03-14T00:02:23;0.70;99.90
15107;DHT22;7654;45.308;-75.096;2023-03-14T00:04:55;0.70;99.90
15107;DHT22;7654;45.308;-75.096;2023-03-14T00:07:26;0.70;99.90
15107;DHT22;7654;45.308;-75.096;2023-03-14T00:09:59;0.70;99.90
15107;DHT22;7654;45.308;-75.096;2023-03-14T00:12:31;0.70;99.90
15107;DHT22;7654;45.308;-75.096;2023-03-14T00:15:04;0.80;99.90
15107;DHT22;7654;45.308;-75.096;2023-03-14T00:17:35;0.70;99.90
15107;DHT22;7654;45.308;-75.096;2023-03-14T00:20:07;0.80;99.90
15107;DHT22;7654;45.308;-75.096;2023-03-14T00:22:38;0.80;99.90
15107;DHT22;7654;45.308;-75.096;2023-03-14T00:25:10;0.80;99.90
15107;DHT22;7654;45.308;-75.096;2023-03-14T00:27:40;0.70;99.90
15107;DHT22;7654;45.308;-75.096;2023-03-14T00:30:13;0.70;99.90
15107;DHT22;7654;45.308;-75.096;2023-03-14T00:32:43;0.80;99.90
15107;DHT22;7654;45.308;-75.096;2023-03-14T00:35:13;0.70;99.90
15107;DHT22;7654;45.308;-75.096;2023-03-14T00:37:44;0.70;99.90
15107;DHT22;7654;45.308;-75.096;2023-03-14T00:40:14;0.70;99.90
15107;DHT22;7654;45.308;-75.096;2023-03-14T00:42:45;0.70;99.90
15107;DHT22;7654;45.308;-75.096;2023-03-14T00:45:17;0.70;99.90
15107;DHT22;7654;45.308;-75.096;2023-03-14T00:47:49;0.70;99.90
15107;DHT22;7654;45.308;-75.096;2023-03-14T00:50:21;0.70;99.90
15107;DHT22;7654;45.308;-75.096;2023-03-14T00:52:53;0.70;99.90
15107;DHT22;7654;45.308;-75.096;2023-03-14T00:55:24;0.70;99.90
15107;DHT22;7654;45.308;-75.096;2023-03-14T00:57:54;0.70;99.90
15107;DHT22;7654;45.308;-75.096;2023-03-14T01:00:26;0.70;99.90
15107;DHT22;7654;45.308;-75.096;2023-03-14T01:02:56;0.70;99.90
15107;DHT22;7654;45.308;-75.096;2023-03-14T01:05:26;0.70;99.90
15107;DHT22;7654;45.308;-75.096;2023-03-14T01:07:57;0.70;99.90
15107;DHT22;7654;45.308;-75.096;2023-03-14T01:10:28;0.70;99.90
15107;DHT22;7654;45.308;-75.096;2023-03-14T01:12:59;0.70;99.90
15107;DHT22;7654;45.308;-75.096;2023-03-14T01:15:33;0.70;99.90
15107;DHT22;7654;45.308;-75.096;2023-03-14T01:18:09;0.70;99.90
15107;DHT22;7654;45.308;-75.096;2023-03-14T01:20:39;0.70;99.90
15107;DHT22;7654;45.308;-75.096;2023-03-14T01:23:12;0.70;99.90
15107;DHT22;7654;45.308;-75.096;2023-03-14T01:25:45;0.70;99.90
15107;DHT22;7654;45.308;-75.096;2023-03-14T01:28:15;0.70;99.90
15107;DHT22;7654;45.308;-75.096;2023-03-14T01:30:50;0.70;99.90
15107;DHT22;7654;45.308;-75.096;2023-03-14T01:33:21;0.70;99.90
15107;DHT22;7654;45.308;-75.096;2023-03-14T01:35:52;0.60;99.90
15107;DHT22;7654;45.308;-75.096;2023-03-14T01:38:22;0.70;99.90
15107;DHT22;7654;45.308;-75.096;2023-03-14T01:40:52;0.60;99.90
15107;DHT22;7654;45.308;-75.096;2023-03-14T01:43:24;0.70;99.90
15107;DHT22;7654;45.308;-75.096;2023-03-14T01:46:24;0.70;99.90
15107;DHT22;7654;45.308;-75.096;2023-03-14T01:49:06;0.70;99.90
15107;DHT22;7654;45.308;-75.096;2023-03-14T01:51:44;0.70;99.90
15107;DHT22;7654;45.308;-75.096;2023-03-14T01:54:19;0.70;99.90
15107;DHT22;7654;45.308;-75.096;2023-03-14T01:56:53;0.70;99.90
15107;DHT22;7654;45.308;-75.096;2023-03-14T01:59:26;0.70;99.90
15107;DHT22;7654;45.308;-75.096;2023-03-14T02:02:00;0.70;99.90
15107;DHT22;7654;45.308;-75.096;2023-03-14T02:04:33;0.70;99.90
15107;DHT22;7654;45.308;-75.096;2023-03-14T02:07:08;0.70;99.90
15107;DHT22;7654;45.308;-75.096;2023-03-14T02:09:41;0.70;99.90
15107;DHT22;7654;45.308;-75.096;2023-03-14T02:12:15;0.70;99.90
15107;DHT22;7654;45.308;-75.096;2023-03-14T02:14:46;0.70;99.90
15107;DHT22;7654;45.308;-75.096;2023-03-14T02:17:20;0.80;99.90
15107;DHT22;7654;45.308;-75.096;2023-03-14T02:20:23;0.70;99.90
15107;DHT22;7654;45.308;-75.096;2023-03-14T02:22:56;0.70;99.90
15107;DHT22;7654;45.308;-75.096;2023-03-14T02:25:32;0.80;99.90
15107;DHT22;7654;45.308;-75.096;2023-03-14T02:28:08;0.70;99.90
15107;DHT22;7654;45.308;-75.096;2023-03-14T02:30:39;0.70;99.90
15107;DHT22;7654;45.308;-75.096;2023-03-14T02:33:12;0.70;99.90
15107;DHT22;7654;45.308;-75.096;2023-03-14T02:35:48;0.70;99.90
15107;DHT22;7654;45.308;-75.096;2023-03-14T02:38:24;0.70;99.90
15107;DHT22;7654;45.308;-75.096;2023-03-14T02:40:57;0.70;99.90
15107;DHT22;7654;45.308;-75.096;2023-03-14T02:43:29;0.70;99.90
15107;DHT22;7654;45.308;-75.096;2023-03-14T02:46:01;0.70;99.90
15107;DHT22;7654;45.308;-75.096;2023-03-14T02:48:34;0.70;99.90
15107;DHT22;7654;45.308;-75.096;2023-03-14T02:51:06;0.70;99.90
15107;DHT22;7654;45.308;-75.096;2023-03-14T02:53:38;0.70;99.90
15107;DHT22;7654;45.308;-75.096;2023-03-14T02:56:09;0.70;99.90
15107;DHT22;7654;45.308;-75.096;2023-03-14T02:58:41;0.70;99.90
15107;DHT22;7654;45.308;-75.096;2023-03-14T03:01:13;0.70;99.90
15107;DHT22;7654;45.308;-75.096;2023-03-14T03:03:43;0.70;99.90
15107;DHT22;7654;45.308;-75.096;2023-03-14T03:06:13;0.70;99.90
15107;DHT22;7654;45.308;-75.096;2023-03-14T03:08:44;0.70;99.90
15107;DHT22;7654;45.308;-75.096;2023-03-14T03:11:15;0.70;99.90
15107;DHT22;7654;45.308;-75.096;2023-03-14T03:13:47;0.70;99.90
15107;DHT22;7654;45.308;-75.096;2023-03-14T03:16:17;0.70;99.90
15107;DHT22;7654;45.308;-75.096;2023-03-14T03:18:47;0.70;99.90
15107;DHT22;7654;45.308;-75.096;2023-03-14T03:21:17;0.70;99.90
15107;DHT22;7654;45.308;-75.096;2023-03-14T03:23:51;0.70;99.90
15107;DHT22;7654;45.308;-75.096;2023-03-14T03:26:22;0.70;99.90
15107;DHT22;7654;45.308;-75.096;2023-03-14T03:28:54;0.70;99.90
15107;DHT22;7654;45.308;-75.096;2023-03-14T03:31:24;0.70;99.90
15107;DHT22;7654;45.308;-75.096;2023-03-14T03:33:55;0.70;99.90
15107;DHT22;7654;45.308;-75.096;2023-03-14T03:36:26;0.70;99.90
15107;DHT22;7654;45.308;-75.096;2023-03-14T03:38:56;0.70;99.90
15107;DHT22;7654;45.308;-75.096;2023-03-14T03:41:27;0.70;99.90
15107;DHT22;7654;45.308;-75.096;2023-03-14T03:43:59;0.70;99.90
15107;DHT22;7654;45.308;-75.096;2023-03-14T03:46:29;0.70;99.90
15107;DHT22;7654;45.308;-75.096;2023-03-14T03:49:00;0.70;99.90
15107;DHT22;7654;45.308;-75.096;2023-03-14T03:51:31;0.70;99.90
15107;DHT22;7654;45.308;-75.096;2023-03-14T03:54:01;0.70;99.90
15107;DHT22;7654;45.308;-75.096;2023-03-14T03:56:32;0.70;99.90
15107;DHT22;7654;45.308;-75.096;2023-03-14T03:59:04;0.80;99.90
15107;DHT22;7654;45.308;-75.096;2023-03-14T04:01:34;0.70;99.90
15107;DHT22;7654;45.308;-75.096;2023-03-14T04:04:05;0.70;99.90
15107;DHT22;7654;45.308;-75.096;2023-03-14T04:06:36;0.80;99.90
15107;DHT22;7654;45.308;-75.096;2023-03-14T04:09:06;0.80;99.90
15107;DHT22;7654;45.308;-75.096;2023-03-14T04:11:37;0.80;99.90
15107;DHT22;7654;45.308;-75.096;2023-03-14T04:14:09;0.80;99.90
15107;DHT22;7654;45.308;-75.096;2023-03-14T04:16:39;0.80;99.90
15107;DHT22;7654;45.308;-75.096;2023-03-14T04:19:10;0.80;99.90
15107;DHT22;7654;45.308;-75.096;2023-03-14T04:21:40;0.80;99.90
15107;DHT22;7654;45.308;-75.096;2023-03-14T04:24:13;0.80;99.90
15107;DHT22;7654;45.308;-75.096;2023-03-14T04:26:43;0.80;99.90
15107;DHT22;7654;45.308;-75.096;2023-03-14T04:29:15;0.80;99.90
15107;DHT22;7654;45.308;-75.096;2023-03-14T04:31:45;0.80;99.90
15107;DHT22;7654;45.308;-75.096;2023-03-14T04:34:15;0.80;99.90
15107;DHT22;7654;45.308;-75.096;2023-03-14T04:36:45;0.80;99.90
15107;DHT22;7654;45.308;-75.096;2023-03-14T04:39:16;0.80;99.90
15107;DHT22;7654;45.308;-75.096;2023-03-14T04:41:46;0.80;99.90
15107;DHT22;7654;45.308;-75.096;2023-03-14T04:44:18;0.80;99.90
15107;DHT22;7654;45.308;-75.096;2023-03-14T04:46:48;0.80;99.90
15107;DHT22;7654;45.308;-75.096;2023-03-14T04:49:18;0.80;99.90
15107;DHT22;7654;45.308;-75.096;2023-03-14T04:51:49;0.80;99.90
15107;DHT22;7654;45.308;-75.096;2023-03-14T04:54:19;0.80;99.90
15107;DHT22;7654;45.308;-75.096;2023-03-14T04:56:49;0.80;99.90
15107;DHT22;7654;45.308;-75.096;2023-03-14T04:59:21;0.80;99.90
15107;DHT22;7654;45.308;-75.096;2023-03-14T05:01:52;0.80;99.90
15107;DHT22;7654;45.308;-75.096;2023-03-14T05:04:22;0.80;99.90
15107;DHT22;7654;45.308;-75.096;2023-03-14T05:06:52;0.80;99.90
15107;DHT22;7654;45.308;-75.096;2023-03-14T05:09:22;0.80;99.90
15107;DHT22;7654;45.308;-75.096;2023-03-14T05:11:52;0.80;99.90
15107;DHT22;7654;45.308;-75.096;2023-03-14T05:14:24;0.80;99.90
15107;DHT22;7654;45.308;-75.096;2023-03-14T05:16:55;0.90;99.90
15107;DHT22;7654;45.308;-75.096;2023-03-14T05:19:25;0.90;99.90
15107;DHT22;7654;45.308;-75.096;2023-03-14T05:21:55;0.90;99.90
15107;DHT22;7654;45.308;-75.096;2023-03-14T05:24:25;0.90;99.90
15107;DHT22;7654;45.308;-75.096;2023-03-14T05:26:55;0.90;99.90
15107;DHT22;7654;45.308;-75.096;2023-03-14T05:29:27;0.90;99.90
15107;DHT22;7654;45.308;-75.096;2023-03-14T05:31:58;0.90;99.90
15107;DHT22;7654;45.308;-75.096;2023-03-14T05:34:28;0.90;99.90
15107;DHT22;7654;45.308;-75.096;2023-03-14T05:36:58;0.90;99.90
15107;DHT22;7654;45.308;-75.096;2023-03-14T05:39:29;0.90;99.90
15107;DHT22;7654;45.308;-75.096;2023-03-14T05:42:00;0.90;99.90
15107;DHT22;7654;45.308;-75.096;2023-03-14T05:44:32;0.90;99.90
15107;DHT22;7654;45.308;-75.096;2023-03-14T05:47:02;0.90;99.90
15107;DHT22;7654;45.308;-75.096;2023-03-14T05:49:32;0.90;99.90
15107;DHT22;7654;45.308;-75.096;2023-03-14T05:52:02;0.90;99.90
15107;DHT22;7654;45.308;-75.096;2023-03-14T05:54:33;0.90;99.90
15107;DHT22;7654;45.308;-75.096;2023-03-14T05:57:03;0.90;99.90
15107;DHT22;7654;45.308;-75.096;2023-03-14T05:59:35;0.90;99.90
15107;DHT22;7654;45.308;-75.096;2023-03-14T06:02:06;0.90;99.90
15107;DHT22;7654;45.308;-75.096;2023-03-14T06:04:36;0.90;99.90
15107;DHT22;7654;45.308;-75.096;2023-03-14T06:07:07;0.90;99.90
15107;DHT22;7654;45.308;-75.096;2023-03-14T06:09:37;0.90;99.90
15107;DHT22;7654;45.308;-75.096;2023-03-14T06:12:07;0.90;99.90
15107;DHT22;7654;45.308;-75.096;2023-03-14T06:14:39;0.90;99.90
15107;DHT22;7654;45.308;-75.096;2023-03-14T06:17:09;0.90;99.90
15107;DHT22;7654;45.308;-75.096;2023-03-14T06:19:40;0.90;99.90
15107;DHT22;7654;45.308;-75.096;2023-03-14T06:22:10;0.90;99.90
15107;DHT22;7654;45.308;-75.096;2023-03-14T06:24:40;0.90;99.90
15107;DHT22;7654;45.308;-75.096;2023-03-14T06:27:10;0.90;99.90
15107;DHT22;7654;45.308;-75.096;2023-03-14T06:29:42;0.90;99.90
15107;DHT22;7654;45.308;-75.096;2023-03-14T06:32:12;0.90;99.90
15107;DHT22;7654;45.308;-75.096;2023-03-14T06:34:42;0.90;99.90
15107;DHT22;7654;45.308;-75.096;2023-03-14T06:37:13;0.90;99.90
15107;DHT22;7654;45.308;-75.096;2023-03-14T06:39:44;0.90;99.90
15107;DHT22;7654;45.308;-75.096;2023-03-14T06:42:15;0.90;99.90
15107;DHT22;7654;45.308;-75.096;2023-03-14T06:44:48;0.90;99.90
15107;DHT22;7654;45.308;-75.096;2023-03-14T06:47:18;1.00;99.90
15107;DHT22;7654;45.308;-75.096;2023-03-14T06:49:48;1.00;99.90
15107;DHT22;7654;45.308;-75.096;2023-03-14T06:52:19;0.90;99.90
15107;DHT22;7654;45.308;-75.096;2023-03-14T06:54:49;0.90;99.90
15107;DHT22;7654;45.308;-75.096;2023-03-14T06:57:19;0.90;99.90
15107;DHT22;7654;45.308;-75.096;2023-03-14T06:59:51;0.90;99.90
15107;DHT22;7654;45.308;-75.096;2023-03-14T07:02:22;0.90;99.90
15107;DHT22;7654;45.308;-75.096;2023-03-14T07:05:08;0.90;99.90
15107;DHT22;7654;45.308;-75.096;2023-03-14T07:07:39;0.90;99.90
15107;DHT22;7654;45.308;-75.096;2023-03-14T07:10:10;0.90;99.90
15107;DHT22;7654;45.308;-75.096;2023-03-14T07:12:41;0.90;99.90
15107;DHT22;7654;45.308;-75.096;2023-03-14T07:15:12;0.90;99.90
15107;DHT22;7654;45.308;-75.096;2023-03-14T07:17:46;0.90;99.90
15107;DHT22;7654;45.308;-75.096;2023-03-14T07:20:16;0.90;99.90
15107;DHT22;7654;45.308;-75.096;2023-03-14T07:22:48;0.90;99.90
15107;DHT22;7654;45.308;-75.096;2023-03-14T07:25:18;0.90;99.90
15107;DHT22;7654;45.308;-75.096;2023-03-14T07:27:49;0.90;99.90
15107;DHT22;7654;45.308;-75.096;2023-03-14T07:30:21;1.00;99.90
15107;DHT22;7654;45.308;-75.096;2023-03-14T07:32:51;1.00;99.90
15107;DHT22;7654;45.308;-75.096;2023-03-14T07:35:21;0.90;99.90
15107;DHT22;7654;45.308;-75.096;2023-03-14T07:37:51;1.00;99.90
15107;DHT22;7654;45.308;-75.096;2023-03-14T07:40:22;1.00;99.90
15107;DHT22;7654;45.308;-75.096;2023-03-14T07:42:52;1.00;99.90
15107;DHT22;7654;45.308;-75.096;2023-03-14T07:45:24;1.00;99.90
15107;DHT22;7654;45.308;-75.096;2023-03-14T07:47:55;1.00;99.90
15107;DHT22;7654;45.308;-75.096;2023-03-14T07:50:26;1.00;99.90
15107;DHT22;7654;45.308;-75.096;2023-03-14T07:52:57;1.00;99.90
15107;DHT22;7654;45.308;-75.096;2023-03-14T07:55:27;1.00;99.90
15107;DHT22;7654;45.308;-75.096;2023-03-14T07:57:57;1.00;99.90
15107;DHT22;7654;45.308;-75.096;2023-03-14T08:00:29;1.00;99.90
15107;DHT22;7654;45.308;-75.096;2023-03-14T08:02:59;1.00;99.90
15107;DHT22;7654;45.308;-75.096;2023-03-14T08:05:30;1.00;99.90
15107;DHT22;7654;45.308;-75.096;2023-03-14T08:08:00;0.90;99.90
15107;DHT22;7654;45.308;-75.096;2023-03-14T08:10:30;0.90;99.90
15107;DHT22;7654;45.308;-75.096;2023-03-14T08:13:01;1.00;99.90
15107;DHT22;7654;45.308;-75.096;2023-03-14T08:15:32;0.90;99.90
15107;DHT22;7654;45.308;-75.096;2023-03-14T08:18:03;0.90;99.90
15107;DHT22;7654;45.308;-75.096;2023-03-14T08:20:36;0.90;99.90
15107;DHT22;7654;45.308;-75.096;2023-03-14T08:23:06;0.90;99.90
15107;DHT22;7654;45.308;-75.096;2023-03-14T08:25:38;0.80;99.90
15107;DHT22;7654;45.308;-75.096;2023-03-14T08:28:08;0.80;99.90
15107;DHT22;7654;45.308;-75.096;2023-03-14T08:30:40;0.80;99.90
15107;DHT22;7654;45.308;-75.096;2023-03-14T08:33:14;0.80;99.90
15107;DHT22;7654;45.308;-75.096;2023-03-14T08:35:44;0.80;99.90
15107;DHT22;7654;45.308;-75.096;2023-03-14T08:38:14;0.70;99.90
15107;DHT22;7654;45.308;-75.096;2023-03-14T08:40:44;0.70;99.90
15107;DHT22;7654;45.308;-75.096;2023-03-14T08:43:14;0.70;99.90
15107;DHT22;7654;45.308;-75.096;2023-03-14T08:45:46;0.70;99.90
15107;DHT22;7654;45.308;-75.096;2023-03-14T08:48:17;0.70;99.90
15107;DHT22;7654;45.308;-75.096;2023-03-14T08:50:47;0.70;99.90
15107;DHT22;7654;45.308;-75.096;2023-03-14T08:53:17;0.70;99.90
15107;DHT22;7654;45.308;-75.096;2023-03-14T08:55:52;0.70;99.90
15107;DHT22;7654;45.308;-75.096;2023-03-14T08:58:23;0.70;99.90
15107;DHT22;7654;45.308;-75.096;2023-03-14T09:00:55;0.80;99.90
15107;DHT22;7654;45.308;-75.096;2023-03-14T09:03:25;0.70;99.90
15107;DHT22;7654;45.308;-75.096;2023-03-14T09:06:00;0.70;99.90
15107;DHT22;7654;45.308;-75.096;2023-03-14T09:08:31;0.70;99.90
15107;DHT22;7654;45.308;-75.096;2023-03-14T09:11:03;0.70;99.90
15107;DHT22;7654;45.308;-75.096;2023-03-14T09:13:36;0.70;99.90
15107;DHT22;7654;45.308;-75.096;2023-03-14T09:16:09;0.80;99.90
15107;DHT22;7654;45.308;-75.096;2023-03-14T09:18:39;0.80;99.90
15107;DHT22;7654;45.308;-75.096;2023-03-14T09:21:09;0.70;99.90
15107;DHT22;7654;45.308;-75.096;2023-03-14T09:23:40;0.80;99.90
15107;DHT22;7654;45.308;-75.096;2023-03-14T09:26:13;0.80;99.90
15107;DHT22;7654;45.308;-75.096;2023-03-14T09:28:43;0.80;99.90
15107;DHT22;7654;45.308;-75.096;2023-03-14T09:31:15;0.80;99.90
15107;DHT22;7654;45.308;-75.096;2023-03-14T09:33:45;0.80;99.90
15107;DHT22;7654;45.308;-75.096;2023-03-14T09:36:15;0.80;99.90
15107;DHT22;7654;45.308;-75.096;2023-03-14T09:38:45;0.80;99.90
15107;DHT22;7654;45.308;-75.096;2023-03-14T09:41:17;0.80;99.90
15107;DHT22;7654;45.308;-75.096;2023-03-14T09:43:58;0.80;99.90
15107;DHT22;7654;45.308;-75.096;2023-03-14T09:46:34;0.80;99.90
15107;DHT22;7654;45.308;-75.096;2023-03-14T09:49:12;0.80;99.90
15107;DHT22;7654;45.308;-75.096;2023-03-14T09:51:45;0.70;99.90
15107;DHT22;7654;45.308;-75.096;2023-03-14T09:57:12;0.80;99.90
15107;DHT22;7654;45.308;-75.096;2023-03-14T09:59:45;0.70;99.90
15107;DHT22;7654;45.308;-75.096;2023-03-14T10:02:19;0.70;99.90
15107;DHT22;7654;45.308;-75.096;2023-03-14T10:04:51;0.80;99.90
15107;DHT22;7654;45.308;-75.096;2023-03-14T10:07:27;0.80;99.90
15107;DHT22;7654;45.308;-75.096;2023-03-14T10:09:58;0.80;99.90
15107;DHT22;7654;45.308;-75.096;2023-03-14T10:12:33;0.80;99.90
15107;DHT22;7654;45.308;-75.096;2023-03-14T10:15:05;0.80;99.90
15107;DHT22;7654;45.308;-75.096;2023-03-14T10:17:42;0.80;99.90
15107;DHT22;7654;45.308;-75.096;2023-03-14T10:20:28;0.80;99.90
15107;DHT22;7654;45.308;-75.096;2023-03-14T10:23:03;0.80;99.90
15107;DHT22;7654;45.308;-75.096;2023-03-14T10:25:36;0.80;99.90
15107;DHT22;7654;45.308;-75.096;2023-03-14T10:28:23;0.80;99.90
15107;DHT22;7654;45.308;-75.096;2023-03-14T10:30:53;0.80;99.90
15107;DHT22;7654;45.308;-75.096;2023-03-14T10:33:27;0.80;99.90
15107;DHT22;7654;45.308;-75.096;2023-03-14T10:35:59;0.80;99.90
15107;DHT22;7654;45.308;-75.096;2023-03-14T10:38:31;0.80;99.90
15107;DHT22;7654;45.308;-75.096;2023-03-14T10:41:03;0.80;99.90
15107;DHT22;7654;45.308;-75.096;2023-03-14T10:43:44;0.80;99.90
15107;DHT22;7654;45.308;-75.096;2023-03-14T10:46:16;0.80;99.90
15107;DHT22;7654;45.308;-75.096;2023-03-14T10:48:48;0.80;99.90
15107;DHT22;7654;45.308;-75.096;2023-03-14T10:51:22;0.80;99.90
15107;DHT22;7654;45.308;-75.096;2023-03-14T10:54:00;0.80;99.90
15107;DHT22;7654;45.308;-75.096;2023-03-14T10:56:34;0.80;99.90
15107;DHT22;7654;45.308;-75.096;2023-03-14T10:59:12;0.80;99.90
15107;DHT22;7654;45.308;-75.096;2023-03-14T11:01:48;0.80;99.90
15107;DHT22;7654;45.308;-75.096;2023-03-14T11:04:37;0.80;99.90
15107;DHT22;7654;45.308;-75.096;2023-03-14T11:07:15;0.80;99.90
15107;DHT22;7654;45.308;-75.096;2023-03-14T11:09:52;0.80;99.90
15107;DHT22;7654;45.308;-75.096;2023-03-14T11:12:38;0.80;99.90
15107;DHT22;7654;45.308;-75.096;2023-03-14T11:15:15;0.80;99.90
15107;DHT22;7654;45.308;-75.096;2023-03-14T11:17:52;0.80;99.90
15107;DHT22;7654;45.308;-75.096;2023-03-14T11:20:35;0.80;99.90
15107;DHT22;7654;45.308;-75.096;2023-03-14T11:23:13;0.80;99.90
15107;DHT22;7654;45.308;-75.096;2023-03-14T11:25:51;0.80;99.90
15107;DHT22;7654;45.308;-75.096;2023-03-14T11:28:28;0.80;99.90
15107;DHT22;7654;45.308;-75.096;2023-03-14T11:31:06;0.80;99.90
15107;DHT22;7654;45.308;-75.096;2023-03-14T11:33:47;0.80;99.90
15107;DHT22;7654;45.308;-75.096;2023-03-14T11:36:25;0.90;99.90
15107;DHT22;7654;45.308;-75.096;2023-03-14T11:38:58;0.80;99.90
15107;DHT22;7654;45.308;-75.096;2023-03-14T11:41:32;0.80;99.90
15107;DHT22;7654;45.308;-75.096;2023-03-14T11:44:09;0.90;99.90
15107;DHT22;7654;45.308;-75.096;2023-03-14T11:46:44;0.90;99.90
15107;DHT22;7654;45.308;-75.096;2023-03-14T11:49:29;0.90;99.90
15107;DHT22;7654;45.308;-75.096;2023-03-14T11:52:06;0.90;99.90
15107;DHT22;7654;45.308;-75.096;2023-03-14T11:54:42;0.90;99.90
15107;DHT22;7654;45.308;-75.096;2023-03-14T11:57:16;0.90;99.90
15107;DHT22;7654;45.308;-75.096;2023-03-14T11:59:51;0.90;99.90
15107;DHT22;7654;45.308;-75.096;2023-03-14T12:02:26;0.90;99.90
15107;DHT22;7654;45.308;-75.096;2023-03-14T12:05:25;0.90;99.90
15107;DHT22;7654;45.308;-75.096;2023-03-14T12:11:01;1.00;99.90
15107;DHT22;7654;45.308;-75.096;2023-03-14T12:13:36;1.00;99.90
15107;DHT22;7654;45.308;-75.096;2023-03-14T12:16:18;1.00;99.90
15107;DHT22;7654;45.308;-75.096;2023-03-14T12:18:50;1.00;99.90
15107;DHT22;7654;45.308;-75.096;2023-03-14T12:21:41;1.00;99.90
15107;DHT22;7654;45.308;-75.096;2023-03-14T12:24:18;1.00;99.90
15107;DHT22;7654;45.308;-75.096;2023-03-14T12:26:53;1.10;99.90
15107;DHT22;7654;45.308;-75.096;2023-03-14T12:29:23;1.10;99.90
15107;DHT22;7654;45.308;-75.096;2023-03-14T12:32:22;1.10;99.90
15107;DHT22;7654;45.308;-75.096;2023-03-14T12:34:54;1.10;99.90
15107;DHT22;7654;45.308;-75.096;2023-03-14T12:37:31;1.20;99.90
15107;DHT22;7654;45.308;-75.096;2023-03-14T12:40:17;1.20;99.90
15107;DHT22;7654;45.308;-75.096;2023-03-14T12:42:59;1.30;99.90
15107;DHT22;7654;45.308;-75.096;2023-03-14T12:45:31;1.30;99.90
15107;DHT22;7654;45.308;-75.096;2023-03-14T12:48:09;1.30;99.90
15107;DHT22;7654;45.308;-75.096;2023-03-14T12:50:44;1.30;99.90
15107;DHT22;7654;45.308;-75.096;2023-03-14T12:53:41;1.30;99.90
15107;DHT22;7654;45.308;-75.096;2023-03-14T12:56:23;1.40;99.90
15107;DHT22;7654;45.308;-75.096;2023-03-14T12:59:11;1.30;99.90
15107;DHT22;7654;45.308;-75.096;2023-03-14T13:01:52;1.40;99.90
15107;DHT22;7654;45.308;-75.096;2023-03-14T13:04:28;1.50;99.90
15107;DHT22;7654;45.308;-75.096;2023-03-14T13:07:11;1.40;99.90
15107;DHT22;7654;45.308;-75.096;2023-03-14T13:10:04;1.40;99.90
15107;DHT22;7654;45.308;-75.096;2023-03-14T13:12:45;1.50;99.90
15107;DHT22;7654;45.308;-75.096;2023-03-14T13:15:23;1.50;99.90
15107;DHT22;7654;45.308;-75.096;2023-03-14T13:17:56;1.60;99.90
15107;DHT22;7654;45.308;-75.096;2023-03-14T13:20:32;1.60;99.90
15107;DHT22;7654;45.308;-75.096;2023-03-14T13:23:04;1.70;99.90
15107;DHT22;7654;45.308;-75.096;2023-03-14T13:25:35;1.70;99.90
15107;DHT22;7654;45.308;-75.096;2023-03-14T13:28:10;1.70;99.90
15107;DHT22;7654;45.308;-75.096;2023-03-14T13:30:42;1.80;99.90
15107;DHT22;7654;45.308;-75.096;2023-03-14T13:33:15;1.80;99.90
15107;DHT22;7654;45.308;-75.096;2023-03-14T13:35:47;1.80;99.90
15107;DHT22;7654;45.308;-75.096;2023-03-14T13:38:19;1.80;99.90
15107;DHT22;7654;45.308;-75.096;2023-03-14T13:40:53;1.90;99.90
15107;DHT22;7654;45.308;-75.096;2023-03-14T13:43:31;2.00;99.90
15107;DHT22;7654;45.308;-75.096;2023-03-14T13:46:04;2.00;99.90
15107;DHT22;7654;45.308;-75.096;2023-03-14T13:48:39;2.00;99.90
15107;DHT22;7654;45.308;-75.096;2023-03-14T13:51:13;2.00;99.90
15107;DHT22;7654;45.308;-75.096;2023-03-14T13:53:46;2.10;99.90
15107;DHT22;7654;45.308;-75.096;2023-03-14T13:56:18;2.10;99.90
15107;DHT22;7654;45.308;-75.096;2023-03-14T13:58:50;2.20;99.90
15107;DHT22;7654;45.308;-75.096;2023-03-14T14:01:23;2.30;99.90
15107;DHT22;7654;45.308;-75.096;2023-03-14T14:03:56;2.30;99.90
15107;DHT22;7654;45.308;-75.096;2023-03-14T14:06:30;2.40;99.90
15107;DHT22;7654;45.308;-75.096;2023-03-14T14:09:04;2.40;99.90
15107;DHT22;7654;45.308;-75.096;2023-03-14T14:11:43;2.50;99.90
15107;DHT22;7654;45.308;-75.096;2023-03-14T14:14:40;2.60;99.90
15107;DHT22;7654;45.308;-75.096;2023-03-14T14:17:14;2.60;99.90
15107;DHT22;7654;45.308;-75.096;2023-03-14T14:19:46;2.70;99.90
15107;DHT22;7654;45.308;-75.096;2023-03-14T14:22:17;2.90;99.90
15107;DHT22;7654;45.308;-75.096;2023-03-14T14:24:49;3.00;99.90
15107;DHT22;7654;45.308;-75.096;2023-03-14T14:27:26;3.00;99.90
15107;DHT22;7654;45.308;-75.096;2023-03-14T14:30:04;3.10;99.90
15107;DHT22;7654;45.308;-75.096;2023-03-14T14:32:36;3.20;99.90
15107;DHT22;7654;45.308;-75.096;2023-03-14T14:35:08;3.20;99.90
15107;DHT22;7654;45.308;-75.096;2023-03-14T14:37:42;3.30;99.90
15107;DHT22;7654;45.308;-75.096;2023-03-14T14:40:19;3.30;99.90
15107;DHT22;7654;45.308;-75.096;2023-03-14T14:42:50;3.20;99.90
15107;DHT22;7654;45.308;-75.096;2023-03-14T14:45:23;3.20;99.90
15107;DHT22;7654;45.308;-75.096;2023-03-14T14:47:57;3.20;99.90
15107;DHT22;7654;45.308;-75.096;2023-03-14T14:50:30;3.20;99.90
15107;DHT22;7654;45.308;-75.096;2023-03-14T14:53:03;3.30;99.90
15107;DHT22;7654;45.308;-75.096;2023-03-14T14:55:51;3.50;99.90
15107;DHT22;7654;45.308;-75.096;2023-03-14T14:58:24;3.60;99.90
15107;DHT22;7654;45.308;-75.096;2023-03-14T15:01:03;3.70;99.90
15107;DHT22;7654;45.308;-75.096;2023-03-14T15:03:34;3.80;99.90
15107;DHT22;7654;45.308;-75.096;2023-03-14T15:06:05;3.90;99.90
15107;DHT22;7654;45.308;-75.096;2023-03-14T15:08:37;4.00;99.90
15107;DHT22;7654;45.308;-75.096;2023-03-14T15:11:16;3.90;99.90
15107;DHT22;7654;45.308;-75.096;2023-03-14T15:13:46;4.10;99.90
15107;DHT22;7654;45.308;-75.096;2023-03-14T15:16:19;4.10;99.90
15107;DHT22;7654;45.308;-75.096;2023-03-14T15:18:52;4.20;99.90
15107;DHT22;7654;45.308;-75.096;2023-03-14T15:21:24;4.20;99.90
15107;DHT22;7654;45.308;-75.096;2023-03-14T15:23:54;4.30;99.90
15107;DHT22;7654;45.308;-75.096;2023-03-14T15:26:26;4.20;99.90
15107;DHT22;7654;45.308;-75.096;2023-03-14T15:28:57;4.00;99.90
15107;DHT22;7654;45.308;-75.096;2023-03-14T15:31:29;4.00;99.90
15107;DHT22;7654;45.308;-75.096;2023-03-14T15:34:00;4.00;99.90
15107;DHT22;7654;45.308;-75.096;2023-03-14T15:36:31;4.20;99.90
15107;DHT22;7654;45.308;-75.096;2023-03-14T15:39:03;4.20;99.90
15107;DHT22;7654;45.308;-75.096;2023-03-14T15:41:33;4.20;99.90
15107;DHT22;7654;45.308;-75.096;2023-03-14T15:44:04;4.20;99.90
15107;DHT22;7654;45.308;-75.096;2023-03-14T15:46:36;4.20;99.90
15107;DHT22;7654;45.308;-75.096;2023-03-14T15:49:08;4.20;99.90
15107;DHT22;7654;45.308;-75.096;2023-03-14T15:51:39;4.20;99.90
15107;DHT22;7654;45.308;-75.096;2023-03-14T15:54:09;4.20;99.90
15107;DHT22;7654;45.308;-75.096;2023-03-14T15:56:39;4.30;99.90
15107;DHT22;7654;45.308;-75.096;2023-03-14T15:59:10;4.30;99.90
15107;DHT22;7654;45.308;-75.096;2023-03-14T16:01:42;4.30;99.90
15107;DHT22;7654;45.308;-75.096;2023-03-14T16:04:12;4.20;99.90
15107;DHT22;7654;45.308;-75.096;2023-03-14T16:06:43;4.30;99.90
15107;DHT22;7654;45.308;-75.096;2023-03-14T16:09:13;4.30;99.90
15107;DHT22;7654;45.308;-75.096;2023-03-14T16:11:43;4.40;99.90
15107;DHT22;7654;45.308;-75.096;2023-03-14T16:14:14;4.50;99.90